Time;durP1;ratioP1;P1;durP2;ratioP2;P2;SDS_P1;SDS_P2;PMS_P1;PMS_P2;Temp;Humidity;BMP_temperature;BMP_pressure;BME280_temperature;BME280_humidity;BME280_pressure;Samples;Min_cycle;Max_cycle;Signal;HPM_P1;HPM_P2
2021/11/22 00:00:11;;;;;;;37.70;16.00;;;;;;;6.48;88.71;99975.83;102880;1317;24267;-61
2021/11/22 00:03:05;;;;;;;35.70;16.00;;;;;;;6.46;88.67;99972.83;102863;1312;25479;-63
2021/11/22 00:05:38;;;;;;;33.80;14.80;;;;;;;6.46;88.63;99976.62;102934;1312;22613;-62
2021/11/22 00:08:09;;;;;;;35.60;15.70;;;;;;;6.46;88.71;99979.85;102918;1318;23172;-61
2021/11/22 00:10:40;;;;;;;36.90;16.00;;;;;;;6.47;88.81;99980.02;102844;1313;25432;-60
2021/11/22 00:13:11;;;;;;;37.90;16.90;;;;;;;6.48;88.80;99984.33;102844;1312;22684;-61
2021/11/22 00:15:43;;;;;;;38.10;16.20;;;;;;;6.47;88.76;99980.08;102788;1312;22638;-60
2021/11/22 00:18:15;;;;;;;37.80;17.40;;;;;;;6.47;88.81;99983.56;102926;1312;22577;-59
2021/11/22 00:20:46;;;;;;;39.20;16.00;;;;;;;6.48;88.80;99981.55;102827;1312;25518;-60
2021/11/22 00:23:17;;;;;;;36.50;16.00;;;;;;;6.48;88.77;99983.27;102828;1312;24216;-60
2021/11/22 00:25:48;;;;;;;36.20;16.20;;;;;;;6.49;88.85;99983.81;102974;1316;23990;-60
2021/11/22 00:28:19;;;;;;;37.20;15.90;;;;;;;6.49;88.93;99988.40;102894;1317;24642;-60
2021/11/22 00:30:50;;;;;;;40.90;17.30;;;;;;;6.50;89.00;99991.05;102839;1312;22679;-60
2021/11/22 00:33:21;;;;;;;38.20;15.60;;;;;;;6.50;89.00;99993.88;102905;1312;24326;-60
2021/11/22 00:35:52;;;;;;;40.90;16.00;;;;;;;6.51;89.08;99997.74;102932;1312;22634;-61
2021/11/22 00:38:23;;;;;;;38.90;17.80;;;;;;;6.51;89.02;100002.24;103312;1317;22977;-60
2021/11/22 00:40:56;;;;;;;42.10;16.30;;;;;;;6.51;89.11;100006.13;102883;1316;25402;-61
2021/11/22 00:43:27;;;;;;;40.10;16.70;;;;;;;6.50;89.28;100007.77;102892;1312;22580;-61
2021/11/22 00:45:58;;;;;;;41.00;16.70;;;;;;;6.48;89.32;100012.52;102847;1312;22643;-62
2021/11/22 00:48:29;;;;;;;39.30;17.40;;;;;;;6.47;89.37;100014.87;102697;1312;25392;-61
2021/11/22 00:51:00;;;;;;;39.50;16.00;;;;;;;6.46;89.47;100018.92;102754;1317;22590;-62
2021/11/22 00:53:32;;;;;;;37.70;15.60;;;;;;;6.44;89.44;100016.63;102827;1318;22656;-61
2021/11/22 00:56:04;;;;;;;31.90;13.50;;;;;;;6.42;89.44;100013.23;102895;1318;25364;-62
2021/11/22 00:58:37;;;;;;;31.20;13.00;;;;;;;6.41;89.34;100016.44;102845;1312;24307;-61
2021/11/22 01:01:08;;;;;;;31.40;12.60;;;;;;;6.40;89.52;100020.44;102870;1312;25502;-61
2021/11/22 01:03:41;;;;;;;31.10;13.50;;;;;;;6.39;89.50;100017.17;102973;1312;23199;-61
2021/11/22 01:06:13;;;;;;;33.80;14.20;;;;;;;6.36;89.55;100019.71;102855;1312;22574;-61
2021/11/22 01:08:44;;;;;;;31.90;13.20;;;;;;;6.35;89.56;100019.88;102904;1313;22903;-62
2021/11/22 01:11:15;;;;;;;35.50;14.70;;;;;;;6.34;89.58;100021.30;102943;1318;23975;-61
2021/11/22 01:13:47;;;;;;;33.80;14.60;;;;;;;6.34;89.58;100024.17;102971;1312;23139;-61
2021/11/22 01:16:18;;;;;;;33.40;14.30;;;;;;;6.34;89.63;100026.08;103043;1312;25316;-61
2021/11/22 01:18:49;;;;;;;35.40;14.20;;;;;;;6.35;89.66;100024.85;102935;1314;24287;-62
2021/11/22 01:21:20;;;;;;;35.40;14.10;;;;;;;6.34;89.64;100029.15;102951;1317;24420;-60
2021/11/22 01:23:51;;;;;;;31.30;13.40;;;;;;;6.35;89.77;100031.91;102901;1312;25364;-61
2021/11/22 01:26:23;;;;;;;33.00;14.20;;;;;;;6.34;89.67;100037.55;102886;1312;25439;-61
2021/11/22 01:28:55;;;;;;;34.30;15.20;;;;;;;6.33;89.78;100044.06;102842;1312;22551;-60
2021/11/22 01:31:26;;;;;;;33.50;12.80;;;;;;;6.32;89.76;100045.41;102972;1313;25401;-61
2021/11/22 01:33:57;;;;;;;33.90;14.10;;;;;;;6.30;89.90;100048.23;102803;1312;24611;-62
2021/11/22 01:36:29;;;;;;;29.60;12.20;;;;;;;6.29;89.96;100044.98;102870;1312;22695;-60
2021/11/22 01:39:01;;;;;;;35.30;14.70;;;;;;;6.27;89.88;100047.65;102869;1312;22593;-60
2021/11/22 01:41:33;;;;;;;32.00;12.00;;;;;;;6.26;90.00;100047.67;102856;1312;22623;-61
2021/11/22 01:44:04;;;;;;;31.60;12.30;;;;;;;6.26;90.10;100048.25;102863;1319;22587;-62
2021/11/22 01:46:35;;;;;;;30.20;12.20;;;;;;;6.25;90.02;100056.27;102966;1317;22649;-61
2021/11/22 01:49:06;;;;;;;30.70;11.60;;;;;;;6.25;90.07;100053.67;102834;1312;24205;-61
2021/11/22 01:51:37;;;;;;;32.10;13.00;;;;;;;6.25;90.09;100055.42;102961;1312;22577;-61
2021/11/22 01:54:08;;;;;;;34.50;13.50;;;;;;;6.24;90.07;100057.83;102832;1312;22645;-61
2021/11/22 01:56:41;;;;;;;34.80;13.40;;;;;;;6.23;90.16;100059.66;102826;1312;23019;-61
2021/11/22 01:59:15;;;;;;;29.40;12.80;;;;;;;6.23;90.15;100064.73;102859;1319;25351;-61
2021/11/22 02:01:48;;;;;;;30.80;12.00;;;;;;;6.22;90.16;100062.34;102958;1317;22709;-61
2021/11/22 02:04:19;;;;;;;32.20;12.90;;;;;;;6.22;90.22;100062.66;102941;1318;25237;-61
2021/11/22 02:06:51;;;;;;;31.90;12.40;;;;;;;6.21;90.27;100066.17;102884;1312;22662;-61
2021/11/22 02:09:22;;;;;;;32.80;12.30;;;;;;;6.20;90.19;100066.05;102854;1312;25272;-61
2021/11/22 02:11:53;;;;;;;31.30;12.50;;;;;;;6.19;90.16;100063.70;103179;1312;24676;-61
2021/11/22 02:14:24;;;;;;;34.00;15.70;;;;;;;6.19;90.18;100062.59;102737;1313;24409;-61
2021/11/22 02:16:55;;;;;;;33.50;15.30;;;;;;;6.20;90.17;100055.83;102850;1316;23031;-62
2021/11/22 02:19:26;;;;;;;33.00;15.30;;;;;;;6.22;90.08;100058.76;102927;1312;25350;-61
2021/11/22 02:21:58;;;;;;;32.40;14.60;;;;;;;6.24;89.99;100056.71;102837;1313;24232;-61
2021/11/22 02:24:29;;;;;;;31.60;14.10;;;;;;;6.27;89.92;100057.63;102905;1317;22602;-61
2021/11/22 02:27:00;;;;;;;24.50;11.00;;;;;;;6.29;89.96;100060.00;102853;1312;22723;-61
2021/11/22 02:29:31;;;;;;;26.40;9.20;;;;;;;6.30;89.79;100068.29;102853;1312;22606;-61
2021/11/22 02:32:02;;;;;;;23.80;10.00;;;;;;;6.31;89.82;100071.20;102874;1316;25469;-62
2021/11/22 02:34:33;;;;;;;27.10;9.80;;;;;;;6.31;89.78;100075.14;102972;1318;24010;-61
2021/11/22 02:37:04;;;;;;;25.00;9.30;;;;;;;6.31;89.75;100081.70;102874;1316;24317;-61
2021/11/22 02:39:35;;;;;;;25.30;9.50;;;;;;;6.33;89.76;100085.50;102946;1319;22763;-61
2021/11/22 02:42:12;;;;;;;23.50;9.80;;;;;;;6.35;89.72;100085.55;102821;1313;24916;-61
2021/11/22 02:44:43;;;;;;;24.70;9.10;;;;;;;6.35;89.63;100087.58;102811;1312;24224;-60
2021/11/22 02:47:14;;;;;;;24.90;9.60;;;;;;;6.35;89.71;100091.86;102860;1313;22629;-62
2021/11/22 02:49:46;;;;;;;21.10;8.00;;;;;;;6.35;89.67;100097.55;102950;1318;25255;-61
2021/11/22 02:52:18;;;;;;;21.40;7.70;;;;;;;6.34;89.63;100098.54;103313;1317;25643;-61
2021/11/22 02:54:51;;;;;;;24.80;9.20;;;;;;;6.32;89.59;100099.39;103420;1316;25499;-60
2021/11/22 02:57:22;;;;;;;22.70;8.60;;;;;;;6.30;89.69;100103.79;102882;1312;22670;-61
2021/11/22 02:59:54;;;;;;;20.30;7.00;;;;;;;6.28;89.65;100110.27;102891;1312;22620;-60
2021/11/22 03:02:25;;;;;;;20.00;7.20;;;;;;;6.27;89.64;100113.31;102967;1312;24314;-60
2021/11/22 03:04:56;;;;;;;22.20;6.90;;;;;;;6.26;89.69;100111.61;102923;1312;22551;-60
2021/11/22 03:07:27;;;;;;;25.40;9.30;;;;;;;6.24;89.69;100114.98;103432;1312;22647;-60
2021/11/22 03:09:58;;;;;;;20.20;9.30;;;;;;;6.22;89.77;100113.17;102850;1312;25371;-60
2021/11/22 03:12:29;;;;;;;23.20;10.80;;;;;;;6.21;89.74;100115.89;102889;1312;22602;-60
2021/11/22 03:15:01;;;;;;;27.20;14.30;;;;;;;6.21;89.75;100117.88;102840;1312;25258;-60
2021/11/22 03:17:32;;;;;;;27.20;12.70;;;;;;;6.21;89.80;100119.09;102970;1313;24665;-60
2021/11/22 03:20:03;;;;;;;28.40;12.90;;;;;;;6.21;89.74;100126.14;102879;1312;25439;-60
2021/11/22 03:22:34;;;;;;;21.90;9.10;;;;;;;6.20;89.77;100125.22;103139;1317;25316;-60
2021/11/22 03:25:08;;;;;;;23.30;8.90;;;;;;;6.18;89.76;100129.23;102915;1312;25550;-59
2021/11/22 03:27:39;;;;;;;23.60;8.30;;;;;;;6.16;89.78;100128.52;102973;1313;26726;-60
2021/11/22 03:30:12;;;;;;;24.10;8.00;;;;;;;6.15;89.76;100130.08;102891;1315;22566;-60
2021/11/22 03:32:44;;;;;;;22.30;8.60;;;;;;;6.15;89.89;100131.19;103016;1312;23997;-59
2021/11/22 03:35:15;;;;;;;25.50;7.50;;;;;;;6.16;89.87;100137.94;102973;1313;22576;-60
2021/11/22 03:37:46;;;;;;;21.50;7.70;;;;;;;6.16;89.97;100137.09;102985;1318;24273;-60
2021/11/22 03:40:18;;;;;;;25.10;8.70;;;;;;;6.17;89.95;100140.86;102879;1307;303244;-60
2021/11/22 03:43:00;;;;;;;24.20;9.40;;;;;;;6.18;90.04;100136.95;103083;1312;22570;-60
2021/11/22 03:45:31;;;;;;;26.30;9.50;;;;;;;6.19;90.03;100135.09;103037;1312;22574;-59
2021/11/22 03:48:03;;;;;;;26.60;9.00;;;;;;;6.20;90.09;100138.62;102956;1312;22555;-61
2021/11/22 03:50:34;;;;;;;26.90;9.60;;;;;;;6.20;89.98;100140.20;102965;1313;22683;-60
2021/11/22 03:53:05;;;;;;;32.30;11.90;;;;;;;6.21;90.05;100143.23;103048;1312;22658;-60
2021/11/22 03:55:36;;;;;;;28.80;12.90;;;;;;;6.21;90.13;100146.64;102909;1312;24344;-60
2021/11/22 03:58:09;;;;;;;26.30;12.20;;;;;;;6.19;90.13;100149.63;102976;1314;22604;-61
2021/11/22 04:00:40;;;;;;;31.70;13.20;;;;;;;6.18;90.17;100146.45;102949;1312;25541;-60
2021/11/22 04:03:11;;;;;;;30.00;12.10;;;;;;;6.15;90.18;100151.36;102975;1317;22637;-60
2021/11/22 04:05:42;;;;;;;30.60;13.20;;;;;;;6.14;90.21;100150.77;102892;1315;25536;-59
2021/11/22 04:08:14;;;;;;;30.30;12.40;;;;;;;6.12;90.19;100153.05;103063;1312;26568;-59
2021/11/22 04:10:46;;;;;;;34.30;12.90;;;;;;;6.11;90.29;100156.05;103100;1316;22639;-60
2021/11/22 04:13:18;;;;;;;30.30;12.90;;;;;;;6.09;90.30;100162.13;102937;1312;22641;-60
2021/11/22 04:15:49;;;;;;;33.00;13.50;;;;;;;6.08;90.27;100161.45;102986;1312;22596;-60
2021/11/22 04:18:20;;;;;;;29.30;12.40;;;;;;;6.08;90.25;100163.14;102982;1316;22568;-60
2021/11/22 04:20:51;;;;;;;30.90;12.40;;;;;;;6.07;90.26;100166.00;102984;1317;22574;-60
2021/11/22 04:23:23;;;;;;;33.20;12.90;;;;;;;6.07;90.36;100166.30;102802;1312;25415;-60
2021/11/22 04:25:54;;;;;;;33.50;13.20;;;;;;;6.06;90.26;100164.38;103031;1317;24003;-60
2021/11/22 04:28:25;;;;;;;30.00;13.10;;;;;;;6.04;90.32;100166.33;103077;1312;23944;-60
2021/11/22 04:30:57;;;;;;;29.80;12.80;;;;;;;6.02;90.34;100168.53;103041;1312;22777;-59
2021/11/22 04:33:28;;;;;;;30.30;12.00;;;;;;;6.00;90.33;100167.35;103130;1317;22686;-59
2021/11/22 04:35:59;;;;;;;29.70;12.00;;;;;;;5.98;90.36;100172.75;102931;1312;22640;-60
2021/11/22 04:38:30;;;;;;;27.90;12.90;;;;;;;5.96;90.31;100174.30;102976;1312;22797;-60
2021/11/22 04:41:01;;;;;;;33.80;13.40;;;;;;;5.95;90.28;100177.84;102921;1317;24216;-60
2021/11/22 04:43:32;;;;;;;28.40;11.80;;;;;;;5.93;90.32;100182.81;102977;1317;25266;-60
2021/11/22 04:46:03;;;;;;;26.70;11.20;;;;;;;5.92;90.28;100188.01;103122;1313;22583;-60
2021/11/22 04:48:38;;;;;;;29.40;11.80;;;;;;;5.89;90.24;100193.95;103784;1300;22589;-61
2021/11/22 04:51:09;;;;;;;31.70;10.20;;;;;;;5.88;90.23;100199.43;103313;1310;25810;-61
2021/11/22 04:53:40;;;;;;;25.70;10.80;;;;;;;5.87;90.14;100206.37;103265;1312;22585;-61
2021/11/22 04:56:11;;;;;;;29.30;11.60;;;;;;;5.87;90.29;100206.05;106761;1316;24157;-62
2021/11/22 04:58:42;;;;;;;27.10;11.00;;;;;;;5.90;90.33;100206.34;106730;1318;22435;-62
2021/11/22 05:01:13;;;;;;;30.90;12.50;;;;;;;5.94;90.33;100214.63;106810;1318;22975;-62
2021/11/22 05:03:46;;;;;;;31.60;12.10;;;;;;;5.95;90.39;100218.91;106665;1318;23105;-62
2021/11/22 05:06:16;;;;;;;29.00;12.00;;;;;;;5.98;90.43;100221.67;106741;1318;22414;-62
2021/11/22 05:08:47;;;;;;;25.20;10.90;;;;;;;6.00;90.41;100225.02;106775;1318;22439;-62
2021/11/22 05:11:18;;;;;;;34.90;11.40;;;;;;;6.02;90.41;100225.46;106732;1318;23782;-62
2021/11/22 05:13:49;;;;;;;31.40;11.80;;;;;;;6.04;90.33;100222.87;106721;1317;22400;-62
2021/11/22 05:16:20;;;;;;;32.60;13.30;;;;;;;6.07;90.33;100227.20;106671;1313;22584;-63
2021/11/22 05:18:51;;;;;;;35.90;13.30;;;;;;;6.08;90.32;100235.95;106735;1318;22762;-62
2021/11/22 05:21:22;;;;;;;31.50;12.60;;;;;;;6.10;90.26;100237.16;106667;1312;22424;-62
2021/11/22 05:23:55;;;;;;;32.20;13.00;;;;;;;6.13;90.19;100238.34;106673;1318;22528;-63
2021/11/22 05:26:26;;;;;;;28.50;13.00;;;;;;;6.15;90.17;100239.67;106733;1317;22523;-63
2021/11/22 05:28:57;;;;;;;33.00;13.10;;;;;;;6.15;90.12;100240.61;106663;1318;22445;-63
2021/11/22 05:31:29;;;;;;;34.10;13.50;;;;;;;6.16;90.12;100250.35;106581;1312;22589;-64
2021/11/22 05:34:00;;;;;;;34.90;14.30;;;;;;;6.17;90.07;100254.82;106704;1313;22951;-62
2021/11/22 05:36:33;;;;;;;29.00;12.70;;;;;;;6.19;90.03;100255.77;106743;1317;22442;-59
2021/11/22 05:39:05;;;;;;;34.90;12.80;;;;;;;6.21;89.99;100261.79;106716;1312;22392;-61
2021/11/22 05:41:37;;;;;;;30.10;11.80;;;;;;;6.22;89.98;100267.93;106694;1316;23426;-61
2021/11/22 05:44:08;;;;;;;28.60;11.20;;;;;;;6.23;89.97;100267.28;106544;1316;22375;-61
2021/11/22 05:46:40;;;;;;;29.90;11.60;;;;;;;6.22;89.94;100275.13;106762;1315;22437;-62
2021/11/22 05:49:11;;;;;;;33.60;13.00;;;;;;;6.23;89.95;100281.73;106829;1313;22379;-61
2021/11/22 05:51:44;;;;;;;30.10;13.00;;;;;;;6.23;89.95;100279.36;106696;1313;22432;-61
2021/11/22 05:54:15;;;;;;;31.40;14.00;;;;;;;6.24;89.97;100280.77;106634;1312;22401;-61
2021/11/22 05:56:46;;;;;;;34.90;14.30;;;;;;;6.25;89.90;100282.80;106734;1313;23141;-61
2021/11/22 05:59:18;;;;;;;35.90;14.60;;;;;;;6.23;89.94;100284.05;106722;1313;22558;-61
2021/11/22 06:01:49;;;;;;;35.50;13.90;;;;;;;6.21;89.94;100291.42;106599;1318;23166;-60
2021/11/22 06:04:20;;;;;;;42.00;15.30;;;;;;;6.18;89.89;100294.54;106790;1318;22537;-61
2021/11/22 06:06:52;;;;;;;31.80;13.30;;;;;;;6.16;89.99;100296.52;106649;1312;22328;-61
2021/11/22 06:09:24;;;;;;;31.00;12.50;;;;;;;6.11;90.01;100300.88;104745;1312;22574;-61
2021/11/22 06:11:55;;;;;;;33.40;12.80;;;;;;;6.06;90.04;100300.95;103771;1313;24448;-60
2021/11/22 06:14:26;;;;;;;31.00;12.80;;;;;;;6.03;90.05;100302.58;103328;1312;24283;-60
2021/11/22 06:16:57;;;;;;;37.30;13.80;;;;;;;5.99;90.06;100304.36;103332;1316;22735;-59
2021/11/22 06:19:28;;;;;;;41.00;16.40;;;;;;;5.97;90.05;100308.64;103400;1312;25405;-60
2021/11/22 06:21:59;;;;;;;37.70;14.60;;;;;;;5.93;90.07;100316.45;103643;1312;26645;-60
2021/11/22 06:24:30;;;;;;;31.20;13.60;;;;;;;5.88;90.01;100322.05;103593;1316;24175;-61
2021/11/22 06:27:02;;;;;;;38.30;15.10;;;;;;;5.84;89.97;100324.33;103378;1313;22720;-60
2021/11/22 06:29:33;;;;;;;41.80;15.30;;;;;;;5.80;90.03;100331.09;103789;1312;22721;-59
2021/11/22 06:32:10;;;;;;;37.00;13.90;;;;;;;5.76;90.14;100339.45;104342;1318;22821;-60
2021/11/22 06:34:41;;;;;;;47.20;18.40;;;;;;;5.72;90.27;100346.27;103500;1310;22590;-60
2021/11/22 06:37:12;;;;;;;39.90;16.30;;;;;;;5.72;90.62;100352.93;103571;1318;22571;-59
2021/11/22 06:39:43;;;;;;;39.10;15.80;;;;;;;5.72;90.86;100356.98;103604;1312;23012;-58
2021/11/22 06:42:15;;;;;;;36.80;14.20;;;;;;;5.73;90.73;100360.09;103402;1314;24272;-63
2021/11/22 06:44:47;;;;;;;35.30;13.20;;;;;;;5.75;90.71;100368.73;103325;1312;22609;-61
2021/11/22 06:47:18;;;;;;;39.90;14.40;;;;;;;5.80;90.55;100372.88;103261;1313;24273;-59
2021/11/22 06:49:49;;;;;;;29.60;10.40;;;;;;;5.83;90.68;100377.85;103496;1318;22515;-59
2021/11/22 06:52:22;;;;;;;34.20;11.80;;;;;;;5.84;90.64;100382.34;103228;1312;22587;-61
2021/11/22 06:54:56;;;;;;;40.60;13.00;;;;;;;5.84;90.52;100387.02;103372;1317;23000;-61
2021/11/22 06:57:28;;;;;;;34.80;12.70;;;;;;;5.86;90.49;100391.30;103223;1317;24303;-61
2021/11/22 07:00:00;;;;;;;37.70;14.10;;;;;;;5.87;90.68;100395.02;103478;1312;23133;-61
2021/11/22 07:02:31;;;;;;;39.70;14.40;;;;;;;5.86;90.64;100392.96;103691;1313;25277;-59
2021/11/22 07:05:02;;;;;;;38.50;15.60;;;;;;;5.86;90.57;100390.20;103376;1318;22577;-62
2021/11/22 07:07:34;;;;;;;36.60;13.30;;;;;;;5.89;90.48;100388.69;103676;1316;22664;-61
2021/11/22 07:10:07;;;;;;;38.30;15.30;;;;;;;5.91;90.55;100384.20;103375;1312;22526;-60
2021/11/22 07:12:39;;;;;;;40.00;14.90;;;;;;;5.93;90.57;100387.92;103279;1312;22632;-61
2021/11/22 07:15:16;;;;;;;39.40;16.10;;;;;;;5.97;90.52;100387.73;104577;1310;22577;-60
2021/11/22 07:17:48;;;;;;;41.70;16.80;;;;;;;5.99;90.49;100395.27;103306;1314;24243;-60
2021/11/22 07:20:20;;;;;;;41.60;17.10;;;;;;;6.00;90.43;100399.66;103393;1318;25618;-61
2021/11/22 07:22:51;;;;;;;44.10;17.10;;;;;;;6.03;90.50;100406.61;105381;1316;25595;-60
2021/11/22 07:25:23;;;;;;;38.70;16.40;;;;;;;6.04;90.50;100415.04;103493;1313;25417;-60
2021/11/22 07:27:54;;;;;;;37.80;15.00;;;;;;;6.03;90.63;100413.10;103107;1317;24623;-60
2021/11/22 07:30:27;;;;;;;38.40;14.20;;;;;;;6.04;90.65;100420.61;103098;1312;22589;-59
2021/11/22 07:32:58;;;;;;;42.50;16.00;;;;;;;6.03;90.71;100425.93;103187;1313;26809;-60
2021/11/22 07:35:30;;;;;;;43.70;15.50;;;;;;;6.02;90.80;100426.66;103054;1312;25381;-59
2021/11/22 07:38:01;;;;;;;40.20;15.90;;;;;;;6.04;90.82;100427.66;103320;1314;25283;-60
2021/11/22 07:40:32;;;;;;;42.60;16.90;;;;;;;6.04;90.85;100433.09;103187;1316;22577;-59
2021/11/22 07:43:04;;;;;;;49.00;15.20;;;;;;;6.04;90.88;100431.27;103090;1312;24244;-59
2021/11/22 07:45:36;;;;;;;39.50;16.60;;;;;;;6.04;90.92;100431.17;103094;1314;24365;-60
2021/11/22 07:48:09;;;;;;;46.30;17.60;;;;;;;6.05;90.95;100434.35;103072;1318;25526;-61
2021/11/22 07:50:40;;;;;;;43.80;17.50;;;;;;;6.04;90.94;100440.38;103035;1318;25428;-59
2021/11/22 07:53:12;;;;;;;45.30;17.50;;;;;;;6.05;90.97;100447.80;103082;1318;22669;-59
2021/11/22 07:55:45;;;;;;;48.10;19.50;;;;;;;6.05;91.00;100448.12;103123;1318;22559;-60
2021/11/22 07:58:16;;;;;;;43.80;17.30;;;;;;;6.07;91.00;100457.26;103062;1313;25187;-59
2021/11/22 08:00:47;;;;;;;43.90;17.50;;;;;;;6.09;90.90;100461.38;102968;1314;22846;-60
2021/11/22 08:03:18;;;;;;;41.60;16.80;;;;;;;6.08;90.59;100461.73;103101;1312;22811;-59
2021/11/22 08:05:53;;;;;;;54.10;20.50;;;;;;;6.09;90.68;100461.39;102983;1317;22616;-59
2021/11/22 08:08:27;;;;;;;46.70;18.70;;;;;;;6.10;90.60;100462.95;103197;1318;25384;-60
2021/11/22 08:11:07;;;;;;;48.30;19.20;;;;;;;6.11;90.60;100468.35;103107;1318;22616;-60
2021/11/22 08:13:38;;;;;;;38.20;16.40;;;;;;;6.12;90.51;100468.24;103203;1318;25017;-59
2021/11/22 08:16:12;;;;;;;48.10;17.90;;;;;;;6.12;90.41;100471.19;103296;1317;22674;-60
2021/11/22 08:18:45;;;;;;;46.80;18.40;;;;;;;6.11;90.40;100473.52;103302;1312;22656;-61
2021/11/22 08:21:16;;;;;;;44.30;19.80;;;;;;;6.09;90.42;100479.11;103511;1317;25326;-61
2021/11/22 08:23:47;;;;;;;43.90;17.80;;;;;;;6.09;90.38;100483.00;103583;1313;25395;-61
2021/11/22 08:26:18;;;;;;;45.60;18.50;;;;;;;6.08;90.44;100489.29;103588;1314;25678;-61
2021/11/22 08:28:51;;;;;;;40.50;18.50;;;;;;;6.07;90.41;100489.55;103718;1319;25278;-61
2021/11/22 08:31:22;;;;;;;38.10;14.10;;;;;;;6.06;90.61;100492.73;103528;1313;22709;-61
2021/11/22 08:33:53;;;;;;;38.30;15.20;;;;;;;6.05;90.52;100499.34;103730;1319;25300;-61
2021/11/22 08:36:26;;;;;;;39.50;17.00;;;;;;;6.04;90.35;100500.59;103386;1318;22552;-61
2021/11/22 08:38:57;;;;;;;45.10;17.80;;;;;;;6.02;90.27;100507.59;103461;1317;22559;-61
2021/11/22 08:41:28;;;;;;;45.40;19.00;;;;;;;6.01;90.27;100507.85;103459;1312;24147;-60
2021/11/22 08:44:02;;;;;;;42.80;18.50;;;;;;;6.02;90.35;100510.66;103452;1318;22584;-63
2021/11/22 08:46:35;;;;;;;47.60;20.20;;;;;;;6.05;90.38;100511.16;103634;1313;25572;-61
2021/11/22 08:49:08;;;;;;;44.60;18.10;;;;;;;6.10;90.49;100514.95;103597;1318;24308;-61
2021/11/22 08:51:40;;;;;;;46.70;19.90;;;;;;;6.15;90.46;100514.56;103484;1311;25090;-61
2021/11/22 08:54:12;;;;;;;42.30;17.90;;;;;;;6.20;90.43;100522.08;103540;1318;24264;-61
2021/11/22 08:56:44;;;;;;;41.50;17.90;;;;;;;6.24;90.26;100525.05;103603;1316;22548;-61
2021/11/22 08:59:17;;;;;;;44.50;19.20;;;;;;;6.26;90.12;100529.75;103540;1316;22624;-61
2021/11/22 09:01:48;;;;;;;40.70;17.50;;;;;;;6.29;90.27;100531.48;103532;1311;22574;-60
2021/11/22 09:04:20;;;;;;;45.90;18.80;;;;;;;6.32;90.04;100531.85;103452;1316;22624;-59
2021/11/22 09:06:51;;;;;;;42.40;18.00;;;;;;;6.33;90.01;100536.88;103287;1318;26043;-59
2021/11/22 09:09:23;;;;;;;43.40;17.60;;;;;;;6.33;89.74;100537.86;103580;1312;22590;-61
2021/11/22 09:11:55;;;;;;;40.20;17.60;;;;;;;6.34;89.78;100540.13;103605;1317;25386;-59
2021/11/22 09:14:26;;;;;;;39.50;17.10;;;;;;;6.35;89.88;100542.38;103498;1315;25221;-61
2021/11/22 09:16:58;;;;;;;41.90;17.50;;;;;;;6.38;89.84;100541.41;103524;1319;24539;-62
2021/11/22 09:19:30;;;;;;;39.70;17.60;;;;;;;6.40;89.75;100539.30;103322;1318;24418;-62
2021/11/22 09:22:02;;;;;;;40.50;17.80;;;;;;;6.40;89.75;100544.20;103976;1318;22660;-62
2021/11/22 09:24:34;;;;;;;37.80;15.80;;;;;;;6.41;89.64;100545.91;104261;1319;22585;-60
2021/11/22 09:27:05;;;;;;;41.20;15.90;;;;;;;6.39;89.29;100547.87;103352;1312;22590;-62
2021/11/22 09:29:37;;;;;;;39.70;17.30;;;;;;;6.37;89.14;100553.80;103595;1312;22600;-62
2021/11/22 09:32:10;;;;;;;38.40;17.40;;;;;;;6.37;89.29;100552.96;103624;1316;23337;-62
2021/11/22 09:34:41;;;;;;;41.10;16.40;;;;;;;6.37;89.19;100553.11;103552;1315;25551;-62
2021/11/22 09:37:12;;;;;;;40.90;17.80;;;;;;;6.34;89.10;100557.88;103535;1312;22829;-61
2021/11/22 09:39:43;;;;;;;41.50;18.10;;;;;;;6.32;89.19;100556.52;103664;1316;25528;-62
2021/11/22 09:42:14;;;;;;;44.90;18.00;;;;;;;6.31;89.28;100560.83;103356;1318;22536;-60
2021/11/22 09:44:48;;;;;;;38.80;16.50;;;;;;;6.31;89.38;100561.11;103487;1316;24275;-61
2021/11/22 09:47:20;;;;;;;41.60;16.90;;;;;;;6.33;89.50;100563.84;103636;1312;22541;-61
2021/11/22 09:49:54;;;;;;;42.60;17.80;;;;;;;6.33;89.40;100568.34;103543;1316;22640;-60
2021/11/22 09:52:26;;;;;;;40.50;19.40;;;;;;;6.35;89.44;100573.92;103747;1314;25753;-61
2021/11/22 09:54:58;;;;;;;35.60;14.90;;;;;;;6.37;89.33;100571.41;103616;1317;22577;-60
2021/11/22 09:57:29;;;;;;;34.70;15.10;;;;;;;6.36;89.09;100575.21;103554;1313;24162;-61
2021/11/22 10:00:02;;;;;;;33.20;14.10;;;;;;;6.34;89.02;100577.11;103491;1318;22519;-61
2021/11/22 10:02:56;;;;;;;33.90;14.70;;;;;;;6.33;89.11;100577.30;103734;1317;22624;-60
2021/11/22 10:05:31;;;;;;;36.30;16.30;;;;;;;6.36;89.31;100579.10;103520;1316;24427;-61
2021/11/22 10:08:05;;;;;;;39.70;16.20;;;;;;;6.39;89.20;100580.38;103551;1318;23125;-61
2021/11/22 10:10:42;;;;;;;41.10;16.70;;;;;;;6.40;88.96;100581.43;103495;1318;25391;-61
2021/11/22 10:13:28;;;;;;;36.90;16.50;;;;;;;6.43;89.06;100579.20;103617;1317;22861;-59
2021/11/22 10:16:01;;;;;;;34.70;16.00;;;;;;;6.48;89.05;100580.10;103566;1318;22580;-62
2021/11/22 10:18:39;;;;;;;39.70;17.50;;;;;;;6.50;88.81;100573.99;103519;1318;25300;-61
2021/11/22 10:21:14;;;;;;;41.90;16.80;;;;;;;6.50;88.73;100575.18;103254;1312;22625;-60
2021/11/22 10:23:47;;;;;;;33.60;14.50;;;;;;;6.51;88.77;100574.63;103443;1313;22555;-63
2021/11/22 10:26:19;;;;;;;35.40;14.90;;;;;;;6.51;88.58;100575.48;103611;1314;24281;-61
2021/11/22 10:28:53;;;;;;;32.90;13.50;;;;;;;6.53;88.57;100570.82;103632;1316;22940;-60
2021/11/22 10:31:27;;;;;;;37.10;14.40;;;;;;;6.55;88.41;100574.51;103566;1315;22781;-61
2021/11/22 10:34:01;;;;;;;39.40;16.80;;;;;;;6.55;88.15;100579.41;103518;1317;26558;-60
2021/11/22 10:36:37;;;;;;;38.20;17.20;;;;;;;6.56;88.15;100580.25;103408;1315;22590;-61
2021/11/22 10:39:08;;;;;;;40.30;19.10;;;;;;;6.58;87.95;100579.81;103507;1318;24223;-60
2021/11/22 10:41:40;;;;;;;32.20;12.90;;;;;;;6.60;88.06;100580.53;103561;1317;22862;-61
2021/11/22 10:44:15;;;;;;;36.40;13.30;;;;;;;6.60;87.79;100586.39;103576;1318;23952;-60
2021/11/22 10:46:51;;;;;;;33.60;15.00;;;;;;;6.58;87.86;100591.13;103671;1319;24246;-61
2021/11/22 10:49:32;;;;;;;31.50;13.00;;;;;;;6.55;87.79;100593.92;103962;1300;22626;-56
2021/11/22 10:52:15;;;;;;;27.60;11.30;;;;;;;6.49;87.68;100595.42;102851;1316;24251;-55
2021/11/22 10:54:57;;;;;;;30.20;11.90;;;;;;;6.45;87.32;100599.20;102785;1312;25284;-56
2021/11/22 10:57:35;;;;;;;37.80;15.70;;;;;;;6.41;87.08;100602.34;102960;1312;25319;-57
2021/11/22 11:00:29;;;;;;;35.60;13.10;;;;;;;6.37;87.21;100605.08;102874;1312;22593;-57
2021/11/22 11:03:07;;;;;;;36.40;12.90;;;;;;;6.34;87.18;100608.41;102787;1312;22590;-56
2021/11/22 11:05:41;;;;;;;34.10;13.50;;;;;;;6.31;87.18;100608.91;102848;1317;23157;-57
2021/11/22 11:08:14;;;;;;;38.90;14.00;;;;;;;6.26;87.17;100611.27;103000;1319;25653;-57
2021/11/22 11:10:50;;;;;;;34.30;14.30;;;;;;;6.22;87.35;100610.91;102920;1317;25319;-56
2021/11/22 11:13:21;;;;;;;35.50;14.60;;;;;;;6.21;87.51;100615.52;102891;1313;24283;-57
2021/11/22 11:16:09;;;;;;;38.80;13.90;;;;;;;6.22;87.50;100615.82;102964;1317;22581;-57
2021/11/22 11:18:40;;;;;;;36.20;14.00;;;;;;;6.23;87.59;100615.55;103074;1317;22595;-56
2021/11/22 11:21:11;;;;;;;35.00;13.20;;;;;;;6.26;87.77;100617.77;103025;1316;24206;-56
2021/11/22 11:23:43;;;;;;;31.40;12.30;;;;;;;6.27;87.55;100621.06;102895;1315;25698;-56
2021/11/22 11:26:14;;;;;;;34.50;14.70;;;;;;;6.22;87.26;100616.67;102814;1319;22577;-56
2021/11/22 11:28:46;;;;;;;35.10;14.00;;;;;;;6.20;87.53;100618.32;103003;1319;24247;-56
2021/11/22 11:31:16;;;;;;;31.90;11.80;;;;;;;6.21;87.71;100618.93;102920;1312;22562;-57